sensor_id;sensor_type;location;lat;lon;timestamp;temperature;humidity
2024;DHT22;1016;48.770;9.154;2022-07-26T00:02:14;25.60;85.10
2024;DHT22;1016;48.770;9.154;2022-07-26T00:04:40;25.50;84.70
2024;DHT22;1016;48.770;9.154;2022-07-26T00:07:05;25.50;85.20
2024;DHT22;1016;48.770;9.154;2022-07-26T00:09:31;25.40;85.40
2024;DHT22;1016;48.770;9.154;2022-07-26T00:11:56;25.40;85.50
2024;DHT22;1016;48.770;9.154;2022-07-26T00:14:22;25.40;85.70
2024;DHT22;1016;48.770;9.154;2022-07-26T00:16:48;25.40;86.00
2024;DHT22;1016;48.770;9.154;2022-07-26T00:19:13;25.40;86.30
2024;DHT22;1016;48.770;9.154;2022-07-26T00:21:39;25.50;87.20
2024;DHT22;1016;48.770;9.154;2022-07-26T00:24:06;25.40;86.80
2024;DHT22;1016;48.770;9.154;2022-07-26T00:26:32;25.40;87.00
2024;DHT22;1016;48.770;9.154;2022-07-26T00:28:57;25.40;86.90
2024;DHT22;1016;48.770;9.154;2022-07-26T00:31:23;25.40;87.00
2024;DHT22;1016;48.770;9.154;2022-07-26T00:33:49;25.40;87.20
2024;DHT22;1016;48.770;9.154;2022-07-26T00:36:15;25.30;87.40
2024;DHT22;1016;48.770;9.154;2022-07-26T00:38:40;25.30;87.40
2024;DHT22;1016;48.770;9.154;2022-07-26T00:41:06;25.30;87.70
2024;DHT22;1016;48.770;9.154;2022-07-26T00:43:32;25.30;87.90
2024;DHT22;1016;48.770;9.154;2022-07-26T00:45:58;25.40;88.30
2024;DHT22;1016;48.770;9.154;2022-07-26T00:48:24;25.40;88.70
2024;DHT22;1016;48.770;9.154;2022-07-26T00:50:51;25.30;88.90
2024;DHT22;1016;48.770;9.154;2022-07-26T00:53:21;25.40;90.00
2024;DHT22;1016;48.770;9.154;2022-07-26T00:55:48;25.40;89.60
2024;DHT22;1016;48.770;9.154;2022-07-26T00:58:15;25.40;89.90
2024;DHT22;1016;48.770;9.154;2022-07-26T01:00:41;25.40;90.00
2024;DHT22;1016;48.770;9.154;2022-07-26T01:03:06;25.40;90.20
2024;DHT22;1016;48.770;9.154;2022-07-26T01:05:32;25.40;90.30
2024;DHT22;1016;48.770;9.154;2022-07-26T01:07:57;25.30;90.50
2024;DHT22;1016;48.770;9.154;2022-07-26T01:10:23;25.40;90.70
2024;DHT22;1016;48.770;9.154;2022-07-26T01:12:49;25.40;91.00
2024;DHT22;1016;48.770;9.154;2022-07-26T01:15:16;25.30;91.30
2024;DHT22;1016;48.770;9.154;2022-07-26T01:17:42;25.30;91.80
2024;DHT22;1016;48.770;9.154;2022-07-26T01:20:09;25.30;92.20
2024;DHT22;1016;48.770;9.154;2022-07-26T01:22:35;25.30;92.80
2024;DHT22;1016;48.770;9.154;2022-07-26T01:25:01;25.20;93.80
2024;DHT22;1016;48.770;9.154;2022-07-26T01:27:27;25.10;94.40
2024;DHT22;1016;48.770;9.154;2022-07-26T01:29:52;25.00;95.20
2024;DHT22;1016;48.770;9.154;2022-07-26T01:32:18;24.90;96.40
2024;DHT22;1016;48.770;9.154;2022-07-26T01:34:44;24.80;97.30
2024;DHT22;1016;48.770;9.154;2022-07-26T01:37:10;24.70;98.60
2024;DHT22;1016;48.770;9.154;2022-07-26T01:39:36;24.60;99.30
2024;DHT22;1016;48.770;9.154;2022-07-26T01:42:02;24.50;99.80
2024;DHT22;1016;48.770;9.154;2022-07-26T01:44:27;24.50;99.90
2024;DHT22;1016;48.770;9.154;2022-07-26T01:46:53;24.40;99.90
2024;DHT22;1016;48.770;9.154;2022-07-26T01:49:18;24.40;99.90
2024;DHT22;1016;48.770;9.154;2022-07-26T01:51:44;24.40;99.90
2024;DHT22;1016;48.770;9.154;2022-07-26T01:54:10;24.40;99.90
2024;DHT22;1016;48.770;9.154;2022-07-26T01:56:35;24.50;99.90
2024;DHT22;1016;48.770;9.154;2022-07-26T01:59:01;24.50;99.90
2024;DHT22;1016;48.770;9.154;2022-07-26T02:01:26;24.60;99.90
2024;DHT22;1016;48.770;9.154;2022-07-26T02:03:52;24.60;99.90
2024;DHT22;1016;48.770;9.154;2022-07-26T02:06:18;24.60;99.90
2024;DHT22;1016;48.770;9.154;2022-07-26T02:08:43;24.70;99.90
2024;DHT22;1016;48.770;9.154;2022-07-26T02:11:09;24.70;99.90
2024;DHT22;1016;48.770;9.154;2022-07-26T02:13:37;24.80;99.90
2024;DHT22;1016;48.770;9.154;2022-07-26T02:16:05;24.80;99.90
2024;DHT22;1016;48.770;9.154;2022-07-26T02:18:31;24.80;99.90
2024;DHT22;1016;48.770;9.154;2022-07-26T02:20:58;24.90;99.90
2024;DHT22;1016;48.770;9.154;2022-07-26T02:23:24;24.80;99.90
2024;DHT22;1016;48.770;9.154;2022-07-26T02:25:51;24.80;99.90
2024;DHT22;1016;48.770;9.154;2022-07-26T02:28:17;24.80;99.90
2024;DHT22;1016;48.770;9.154;2022-07-26T02:30:43;24.90;99.90
2024;DHT22;1016;48.770;9.154;2022-07-26T02:33:09;24.90;99.90
2024;DHT22;1016;48.770;9.154;2022-07-26T02:35:35;24.90;99.90
2024;DHT22;1016;48.770;9.154;2022-07-26T02:38:03;25.00;99.90
2024;DHT22;1016;48.770;9.154;2022-07-26T02:40:29;25.10;99.90
2024;DHT22;1016;48.770;9.154;2022-07-26T02:42:55;25.00;99.90
2024;DHT22;1016;48.770;9.154;2022-07-26T02:45:20;25.00;99.90
2024;DHT22;1016;48.770;9.154;2022-07-26T02:47:50;25.00;99.90
2024;DHT22;1016;48.770;9.154;2022-07-26T02:50:17;25.00;99.90
2024;DHT22;1016;48.770;9.154;2022-07-26T02:52:43;25.00;99.90
2024;DHT22;1016;48.770;9.154;2022-07-26T02:55:13;24.90;99.90
2024;DHT22;1016;48.770;9.154;2022-07-26T02:57:38;25.00;99.90
2024;DHT22;1016;48.770;9.154;2022-07-26T03:00:05;24.90;99.90
2024;DHT22;1016;48.770;9.154;2022-07-26T03:02:31;24.90;99.90
2024;DHT22;1016;48.770;9.154;2022-07-26T03:04:57;24.90;99.90
2024;DHT22;1016;48.770;9.154;2022-07-26T03:07:22;24.90;99.90
2024;DHT22;1016;48.770;9.154;2022-07-26T03:09:48;24.90;99.90
2024;DHT22;1016;48.770;9.154;2022-07-26T03:12:13;25.00;99.90
2024;DHT22;1016;48.770;9.154;2022-07-26T03:14:39;24.90;99.90
2024;DHT22;1016;48.770;9.154;2022-07-26T03:17:04;24.90;99.90
2024;DHT22;1016;48.770;9.154;2022-07-26T03:19:30;24.90;99.90
2024;DHT22;1016;48.770;9.154;2022-07-26T03:21:55;24.80;99.90
2024;DHT22;1016;48.770;9.154;2022-07-26T03:24:21;24.80;99.90
2024;DHT22;1016;48.770;9.154;2022-07-26T03:26:46;24.90;99.90
2024;DHT22;1016;48.770;9.154;2022-07-26T03:29:12;24.80;99.90
2024;DHT22;1016;48.770;9.154;2022-07-26T03:31:37;24.80;99.90
2024;DHT22;1016;48.770;9.154;2022-07-26T03:34:03;24.80;99.90
2024;DHT22;1016;48.770;9.154;2022-07-26T03:36:28;24.80;99.90
2024;DHT22;1016;48.770;9.154;2022-07-26T03:38:54;24.70;99.90
2024;DHT22;1016;48.770;9.154;2022-07-26T03:41:20;24.70;99.90
2024;DHT22;1016;48.770;9.154;2022-07-26T03:43:45;24.60;99.90
2024;DHT22;1016;48.770;9.154;2022-07-26T03:46:11;24.50;99.90
2024;DHT22;1016;48.770;9.154;2022-07-26T03:48:36;24.50;99.90
2024;DHT22;1016;48.770;9.154;2022-07-26T03:51:02;24.40;99.90
2024;DHT22;1016;48.770;9.154;2022-07-26T03:53:27;24.30;99.90
2024;DHT22;1016;48.770;9.154;2022-07-26T03:55:53;24.20;99.90
2024;DHT22;1016;48.770;9.154;2022-07-26T03:58:37;24.20;99.90
2024;DHT22;1016;48.770;9.154;2022-07-26T04:01:03;24.10;99.90
2024;DHT22;1016;48.770;9.154;2022-07-26T04:03:29;24.10;99.90
2024;DHT22;1016;48.770;9.154;2022-07-26T04:05:54;24.10;99.90
2024;DHT22;1016;48.770;9.154;2022-07-26T04:08:20;24.30;99.90
2024;DHT22;1016;48.770;9.154;2022-07-26T04:10:48;24.20;99.90
2024;DHT22;1016;48.770;9.154;2022-07-26T04:13:16;24.30;99.90
2024;DHT22;1016;48.770;9.154;2022-07-26T04:15:42;24.20;99.90
2024;DHT22;1016;48.770;9.154;2022-07-26T04:18:07;24.30;99.90
2024;DHT22;1016;48.770;9.154;2022-07-26T04:20:33;24.30;99.90
2024;DHT22;1016;48.770;9.154;2022-07-26T04:22:59;24.30;99.90
2024;DHT22;1016;48.770;9.154;2022-07-26T04:25:24;24.30;99.90
2024;DHT22;1016;48.770;9.154;2022-07-26T04:27:50;24.20;99.90
2024;DHT22;1016;48.770;9.154;2022-07-26T04:30:15;24.10;99.90
2024;DHT22;1016;48.770;9.154;2022-07-26T04:32:42;24.10;99.90
2024;DHT22;1016;48.770;9.154;2022-07-26T04:35:08;24.10;99.90
2024;DHT22;1016;48.770;9.154;2022-07-26T04:37:38;24.20;99.90
2024;DHT22;1016;48.770;9.154;2022-07-26T04:40:04;24.20;99.90
2024;DHT22;1016;48.770;9.154;2022-07-26T04:42:30;24.10;99.90
2024;DHT22;1016;48.770;9.154;2022-07-26T04:44:56;24.00;99.90
2024;DHT22;1016;48.770;9.154;2022-07-26T04:47:21;24.00;99.90
2024;DHT22;1016;48.770;9.154;2022-07-26T04:49:47;24.00;99.90
2024;DHT22;1016;48.770;9.154;2022-07-26T04:52:12;24.00;99.90
2024;DHT22;1016;48.770;9.154;2022-07-26T04:54:38;23.90;99.90
2024;DHT22;1016;48.770;9.154;2022-07-26T04:57:03;23.90;99.90
2024;DHT22;1016;48.770;9.154;2022-07-26T04:59:29;23.80;99.90
2024;DHT22;1016;48.770;9.154;2022-07-26T05:01:54;23.80;99.90
2024;DHT22;1016;48.770;9.154;2022-07-26T05:04:20;23.80;99.90
2024;DHT22;1016;48.770;9.154;2022-07-26T05:06:45;23.80;99.90
2024;DHT22;1016;48.770;9.154;2022-07-26T05:09:11;23.90;99.90
2024;DHT22;1016;48.770;9.154;2022-07-26T05:11:36;24.00;99.90
2024;DHT22;1016;48.770;9.154;2022-07-26T05:14:02;24.00;99.90
2024;DHT22;1016;48.770;9.154;2022-07-26T05:16:27;24.20;99.90
2024;DHT22;1016;48.770;9.154;2022-07-26T05:18:53;24.00;99.90
2024;DHT22;1016;48.770;9.154;2022-07-26T05:21:19;24.10;99.90
2024;DHT22;1016;48.770;9.154;2022-07-26T05:23:44;24.10;99.90
2024;DHT22;1016;48.770;9.154;2022-07-26T05:26:10;24.10;99.90
2024;DHT22;1016;48.770;9.154;2022-07-26T05:28:38;24.20;99.90
2024;DHT22;1016;48.770;9.154;2022-07-26T05:31:04;24.20;99.90
2024;DHT22;1016;48.770;9.154;2022-07-26T05:33:29;24.30;99.90
2024;DHT22;1016;48.770;9.154;2022-07-26T05:35:55;24.30;99.90
2024;DHT22;1016;48.770;9.154;2022-07-26T05:38:20;24.40;99.90
2024;DHT22;1016;48.770;9.154;2022-07-26T05:40:46;24.40;99.90
2024;DHT22;1016;48.770;9.154;2022-07-26T05:43:12;24.30;99.90
2024;DHT22;1016;48.770;9.154;2022-07-26T05:45:38;24.30;99.90
2024;DHT22;1016;48.770;9.154;2022-07-26T05:48:03;24.30;99.90
2024;DHT22;1016;48.770;9.154;2022-07-26T05:50:29;24.20;99.90
2024;DHT22;1016;48.770;9.154;2022-07-26T05:52:54;24.10;99.90
2024;DHT22;1016;48.770;9.154;2022-07-26T05:55:20;24.10;99.90
2024;DHT22;1016;48.770;9.154;2022-07-26T05:57:46;24.00;99.90
2024;DHT22;1016;48.770;9.154;2022-07-26T06:00:12;24.10;99.90
2024;DHT22;1016;48.770;9.154;2022-07-26T06:02:39;24.10;99.90
2024;DHT22;1016;48.770;9.154;2022-07-26T06:05:05;24.10;99.90
2024;DHT22;1016;48.770;9.154;2022-07-26T06:07:30;24.20;99.90
2024;DHT22;1016;48.770;9.154;2022-07-26T06:09:56;24.20;99.90
2024;DHT22;1016;48.770;9.154;2022-07-26T06:12:22;24.10;99.90
2024;DHT22;1016;48.770;9.154;2022-07-26T06:14:47;24.20;99.90
2024;DHT22;1016;48.770;9.154;2022-07-26T06:17:13;24.10;99.90
2024;DHT22;1016;48.770;9.154;2022-07-26T06:19:39;24.10;99.90
2024;DHT22;1016;48.770;9.154;2022-07-26T06:22:04;24.10;99.90
2024;DHT22;1016;48.770;9.154;2022-07-26T06:24:30;24.10;99.90
2024;DHT22;1016;48.770;9.154;2022-07-26T06:26:56;24.20;99.90
2024;DHT22;1016;48.770;9.154;2022-07-26T06:29:22;24.30;99.90
2024;DHT22;1016;48.770;9.154;2022-07-26T06:31:48;24.30;99.90
2024;DHT22;1016;48.770;9.154;2022-07-26T06:34:13;24.30;99.90
2024;DHT22;1016;48.770;9.154;2022-07-26T06:36:39;24.30;99.90
2024;DHT22;1016;48.770;9.154;2022-07-26T06:39:05;24.40;99.40
2024;DHT22;1016;48.770;9.154;2022-07-26T06:41:30;24.50;98.60
2024;DHT22;1016;48.770;9.154;2022-07-26T06:43:56;24.60;98.30
2024;DHT22;1016;48.770;9.154;2022-07-26T06:46:21;24.70;96.60
2024;DHT22;1016;48.770;9.154;2022-07-26T06:48:50;24.70;95.80
2024;DHT22;1016;48.770;9.154;2022-07-26T06:51:15;24.70;95.40
2024;DHT22;1016;48.770;9.154;2022-07-26T06:53:41;24.70;95.20
2024;DHT22;1016;48.770;9.154;2022-07-26T06:56:07;24.80;94.00
2024;DHT22;1016;48.770;9.154;2022-07-26T06:58:32;24.70;93.80
2024;DHT22;1016;48.770;9.154;2022-07-26T07:00:58;24.90;93.60
2024;DHT22;1016;48.770;9.154;2022-07-26T07:03:23;24.90;93.00
2024;DHT22;1016;48.770;9.154;2022-07-26T07:05:49;25.00;91.80
2024;DHT22;1016;48.770;9.154;2022-07-26T07:08:15;25.00;91.30
2024;DHT22;1016;48.770;9.154;2022-07-26T07:10:40;25.10;90.90
2024;DHT22;1016;48.770;9.154;2022-07-26T07:13:06;25.30;91.00
2024;DHT22;1016;48.770;9.154;2022-07-26T07:15:32;25.20;90.60
2024;DHT22;1016;48.770;9.154;2022-07-26T07:17:57;25.20;90.50
2024;DHT22;1016;48.770;9.154;2022-07-26T07:20:23;25.20;90.70
2024;DHT22;1016;48.770;9.154;2022-07-26T07:22:48;25.40;90.70
2024;DHT22;1016;48.770;9.154;2022-07-26T07:25:14;25.50;90.10
2024;DHT22;1016;48.770;9.154;2022-07-26T07:27:40;25.60;89.50
2024;DHT22;1016;48.770;9.154;2022-07-26T07:30:06;25.60;87.90
2024;DHT22;1016;48.770;9.154;2022-07-26T07:32:32;25.60;86.00
2024;DHT22;1016;48.770;9.154;2022-07-26T07:34:58;25.60;86.60
2024;DHT22;1016;48.770;9.154;2022-07-26T07:37:24;25.70;86.80
2024;DHT22;1016;48.770;9.154;2022-07-26T07:39:50;25.70;86.00
2024;DHT22;1016;48.770;9.154;2022-07-26T07:42:15;25.70;87.20
2024;DHT22;1016;48.770;9.154;2022-07-26T07:44:41;25.70;86.80
2024;DHT22;1016;48.770;9.154;2022-07-26T07:47:06;25.70;86.60
2024;DHT22;1016;48.770;9.154;2022-07-26T07:49:35;25.70;86.00
2024;DHT22;1016;48.770;9.154;2022-07-26T07:52:01;25.70;85.80
2024;DHT22;1016;48.770;9.154;2022-07-26T07:54:26;25.80;84.80
2024;DHT22;1016;48.770;9.154;2022-07-26T07:56:52;25.90;85.00
2024;DHT22;1016;48.770;9.154;2022-07-26T07:59:21;25.90;84.40
2024;DHT22;1016;48.770;9.154;2022-07-26T08:01:46;26.00;83.50
2024;DHT22;1016;48.770;9.154;2022-07-26T08:04:12;25.90;83.60
2024;DHT22;1016;48.770;9.154;2022-07-26T08:06:37;25.80;84.20
2024;DHT22;1016;48.770;9.154;2022-07-26T08:09:03;25.90;84.00
2024;DHT22;1016;48.770;9.154;2022-07-26T08:11:29;25.90;84.20
2024;DHT22;1016;48.770;9.154;2022-07-26T08:13:54;26.00;83.10
2024;DHT22;1016;48.770;9.154;2022-07-26T08:16:20;25.90;83.10
2024;DHT22;1016;48.770;9.154;2022-07-26T08:18:45;26.00;83.00
2024;DHT22;1016;48.770;9.154;2022-07-26T08:21:11;26.30;82.30
2024;DHT22;1016;48.770;9.154;2022-07-26T08:23:37;26.10;82.50
2024;DHT22;1016;48.770;9.154;2022-07-26T08:26:02;26.30;83.10
2024;DHT22;1016;48.770;9.154;2022-07-26T08:28:28;26.30;82.20
2024;DHT22;1016;48.770;9.154;2022-07-26T08:30:54;26.40;81.50
2024;DHT22;1016;48.770;9.154;2022-07-26T08:33:19;26.50;80.80
2024;DHT22;1016;48.770;9.154;2022-07-26T08:35:45;26.50;79.20
2024;DHT22;1016;48.770;9.154;2022-07-26T08:38:11;26.40;80.00
2024;DHT22;1016;48.770;9.154;2022-07-26T08:40:36;26.30;79.30
2024;DHT22;1016;48.770;9.154;2022-07-26T08:43:02;26.40;79.70
2024;DHT22;1016;48.770;9.154;2022-07-26T08:45:29;26.50;79.10
2024;DHT22;1016;48.770;9.154;2022-07-26T08:47:58;26.50;79.10
2024;DHT22;1016;48.770;9.154;2022-07-26T08:50:24;26.60;78.80
2024;DHT22;1016;48.770;9.154;2022-07-26T08:52:50;26.60;78.60
2024;DHT22;1016;48.770;9.154;2022-07-26T08:55:18;26.70;77.70
2024;DHT22;1016;48.770;9.154;2022-07-26T08:57:44;26.70;77.80
2024;DHT22;1016;48.770;9.154;2022-07-26T09:00:24;26.60;78.40
2024;DHT22;1016;48.770;9.154;2022-07-26T09:02:51;26.70;77.40
2024;DHT22;1016;48.770;9.154;2022-07-26T09:05:26;26.80;77.20
2024;DHT22;1016;48.770;9.154;2022-07-26T09:07:52;26.90;76.00
2024;DHT22;1016;48.770;9.154;2022-07-26T09:10:18;26.90;75.20
2024;DHT22;1016;48.770;9.154;2022-07-26T09:12:43;26.70;75.70
2024;DHT22;1016;48.770;9.154;2022-07-26T09:15:18;26.60;76.60
2024;DHT22;1016;48.770;9.154;2022-07-26T09:17:50;26.70;75.40
2024;DHT22;1016;48.770;9.154;2022-07-26T09:20:25;26.70;75.10
2024;DHT22;1016;48.770;9.154;2022-07-26T09:23:09;26.80;75.10
2024;DHT22;1016;48.770;9.154;2022-07-26T09:25:40;26.90;75.10
2024;DHT22;1016;48.770;9.154;2022-07-26T09:28:32;26.90;74.30
2024;DHT22;1016;48.770;9.154;2022-07-26T09:31:00;27.00;74.10
2024;DHT22;1016;48.770;9.154;2022-07-26T09:33:43;27.10;73.90
2024;DHT22;1016;48.770;9.154;2022-07-26T09:36:08;27.10;73.50
2024;DHT22;1016;48.770;9.154;2022-07-26T09:38:42;27.10;73.20
2024;DHT22;1016;48.770;9.154;2022-07-26T09:41:22;27.10;73.80
2024;DHT22;1016;48.770;9.154;2022-07-26T09:43:49;27.10;73.20
2024;DHT22;1016;48.770;9.154;2022-07-26T09:46:16;27.10;73.10
2024;DHT22;1016;48.770;9.154;2022-07-26T09:48:42;27.20;72.80
2024;DHT22;1016;48.770;9.154;2022-07-26T09:51:09;27.20;71.90
2024;DHT22;1016;48.770;9.154;2022-07-26T09:53:44;27.10;71.80
2024;DHT22;1016;48.770;9.154;2022-07-26T09:56:10;27.20;71.90
2024;DHT22;1016;48.770;9.154;2022-07-26T09:58:37;27.10;71.80
2024;DHT22;1016;48.770;9.154;2022-07-26T10:01:04;27.20;72.20
2024;DHT22;1016;48.770;9.154;2022-07-26T10:03:31;27.30;72.90
2024;DHT22;1016;48.770;9.154;2022-07-26T10:05:58;27.30;73.10
2024;DHT22;1016;48.770;9.154;2022-07-26T10:08:24;27.10;73.50
2024;DHT22;1016;48.770;9.154;2022-07-26T10:11:05;26.90;74.50
2024;DHT22;1016;48.770;9.154;2022-07-26T10:13:31;26.80;75.00
2024;DHT22;1016;48.770;9.154;2022-07-26T10:15:57;26.70;75.40
2024;DHT22;1016;48.770;9.154;2022-07-26T10:23:46;26.80;75.50
2024;DHT22;1016;48.770;9.154;2022-07-26T10:31:46;26.70;75.60
2024;DHT22;1016;48.770;9.154;2022-07-26T10:34:30;26.80;76.70
2024;DHT22;1016;48.770;9.154;2022-07-26T10:37:07;26.90;76.40
2024;DHT22;1016;48.770;9.154;2022-07-26T10:39:34;26.90;75.90
2024;DHT22;1016;48.770;9.154;2022-07-26T10:42:08;26.90;75.00
2024;DHT22;1016;48.770;9.154;2022-07-26T10:44:36;26.80;75.70
2024;DHT22;1016;48.770;9.154;2022-07-26T10:47:16;26.80;75.90
2024;DHT22;1016;48.770;9.154;2022-07-26T10:49:58;27.00;75.80
2024;DHT22;1016;48.770;9.154;2022-07-26T10:52:28;27.00;75.10
2024;DHT22;1016;48.770;9.154;2022-07-26T10:59:59;26.90;74.30
2024;DHT22;1016;48.770;9.154;2022-07-26T11:02:27;26.80;74.20
2024;DHT22;1016;48.770;9.154;2022-07-26T11:05:06;26.80;73.70
2024;DHT22;1016;48.770;9.154;2022-07-26T11:07:56;26.90;73.90
2024;DHT22;1016;48.770;9.154;2022-07-26T11:10:27;26.90;73.60
2024;DHT22;1016;48.770;9.154;2022-07-26T11:13:00;26.90;73.50
2024;DHT22;1016;48.770;9.154;2022-07-26T11:15:25;27.30;73.50
2024;DHT22;1016;48.770;9.154;2022-07-26T11:17:51;27.20;72.90
2024;DHT22;1016;48.770;9.154;2022-07-26T11:20:29;27.20;73.10
2024;DHT22;1016;48.770;9.154;2022-07-26T11:22:55;27.30;72.50
2024;DHT22;1016;48.770;9.154;2022-07-26T11:25:21;27.30;71.80
2024;DHT22;1016;48.770;9.154;2022-07-26T11:28:02;27.30;71.30
2024;DHT22;1016;48.770;9.154;2022-07-26T11:30:28;27.10;71.90
2024;DHT22;1016;48.770;9.154;2022-07-26T11:32:54;27.10;71.80
2024;DHT22;1016;48.770;9.154;2022-07-26T11:35:24;26.90;72.20
2024;DHT22;1016;48.770;9.154;2022-07-26T11:37:55;26.90;71.80
2024;DHT22;1016;48.770;9.154;2022-07-26T11:40:43;26.90;71.70
2024;DHT22;1016;48.770;9.154;2022-07-26T11:43:09;27.00;72.40
2024;DHT22;1016;48.770;9.154;2022-07-26T11:45:35;27.10;72.20
2024;DHT22;1016;48.770;9.154;2022-07-26T11:48:00;27.30;70.70
2024;DHT22;1016;48.770;9.154;2022-07-26T11:50:27;27.20;70.20
2024;DHT22;1016;48.770;9.154;2022-07-26T11:52:52;27.20;69.70
2024;DHT22;1016;48.770;9.154;2022-07-26T11:55:25;27.20;70.00
2024;DHT22;1016;48.770;9.154;2022-07-26T11:57:51;27.10;68.90
2024;DHT22;1016;48.770;9.154;2022-07-26T12:00:17;27.00;69.30
2024;DHT22;1016;48.770;9.154;2022-07-26T12:02:43;27.10;69.20
2024;DHT22;1016;48.770;9.154;2022-07-26T12:05:20;27.10;69.20
2024;DHT22;1016;48.770;9.154;2022-07-26T12:08:02;27.00;69.10
2024;DHT22;1016;48.770;9.154;2022-07-26T12:10:29;26.80;69.10
2024;DHT22;1016;48.770;9.154;2022-07-26T12:13:14;26.70;69.40
2024;DHT22;1016;48.770;9.154;2022-07-26T12:15:51;26.70;69.60
2024;DHT22;1016;48.770;9.154;2022-07-26T12:18:25;26.80;69.40
2024;DHT22;1016;48.770;9.154;2022-07-26T12:21:07;27.00;66.40
2024;DHT22;1016;48.770;9.154;2022-07-26T12:23:46;27.10;64.50
2024;DHT22;1016;48.770;9.154;2022-07-26T12:28:46;27.10;66.90
2024;DHT22;1016;48.770;9.154;2022-07-26T12:31:44;27.20;67.20
2024;DHT22;1016;48.770;9.154;2022-07-26T12:34:10;27.30;66.60
2024;DHT22;1016;48.770;9.154;2022-07-26T12:36:36;27.30;67.20
2024;DHT22;1016;48.770;9.154;2022-07-26T12:39:01;27.30;66.60
2024;DHT22;1016;48.770;9.154;2022-07-26T12:41:37;27.40;66.00
2024;DHT22;1016;48.770;9.154;2022-07-26T12:44:05;27.40;66.10
2024;DHT22;1016;48.770;9.154;2022-07-26T12:46:34;27.40;65.50
2024;DHT22;1016;48.770;9.154;2022-07-26T12:49:01;27.50;65.00
2024;DHT22;1016;48.770;9.154;2022-07-26T12:51:27;27.60;64.40
2024;DHT22;1016;48.770;9.154;2022-07-26T12:53:53;27.60;63.60
2024;DHT22;1016;48.770;9.154;2022-07-26T12:56:19;27.80;63.50
2024;DHT22;1016;48.770;9.154;2022-07-26T12:58:44;27.70;63.10
2024;DHT22;1016;48.770;9.154;2022-07-26T13:01:10;27.70;62.70
2024;DHT22;1016;48.770;9.154;2022-07-26T13:03:36;27.70;62.30
2024;DHT22;1016;48.770;9.154;2022-07-26T13:06:01;27.50;62.50
2024;DHT22;1016;48.770;9.154;2022-07-26T13:08:28;27.50;62.20
2024;DHT22;1016;48.770;9.154;2022-07-26T13:10:54;27.40;61.80
2024;DHT22;1016;48.770;9.154;2022-07-26T13:13:19;27.50;61.70
2024;DHT22;1016;48.770;9.154;2022-07-26T13:15:45;27.70;62.10
2024;DHT22;1016;48.770;9.154;2022-07-26T13:18:12;27.60;61.80
2024;DHT22;1016;48.770;9.154;2022-07-26T13:20:38;27.70;61.00
2024;DHT22;1016;48.770;9.154;2022-07-26T13:23:03;27.60;61.00
2024;DHT22;1016;48.770;9.154;2022-07-26T13:25:29;27.70;61.30
2024;DHT22;1016;48.770;9.154;2022-07-26T13:27:55;27.70;61.10
2024;DHT22;1016;48.770;9.154;2022-07-26T13:30:21;27.70;60.70
2024;DHT22;1016;48.770;9.154;2022-07-26T13:32:46;27.80;60.30
2024;DHT22;1016;48.770;9.154;2022-07-26T13:35:12;27.80;60.50
2024;DHT22;1016;48.770;9.154;2022-07-26T13:37:37;27.90;60.30
2024;DHT22;1016;48.770;9.154;2022-07-26T13:40:04;27.90;59.40
2024;DHT22;1016;48.770;9.154;2022-07-26T13:42:30;28.10;59.30
2024;DHT22;1016;48.770;9.154;2022-07-26T13:44:55;28.30;58.90
2024;DHT22;1016;48.770;9.154;2022-07-26T13:47:21;29.90;58.90
2024;DHT22;1016;48.770;9.154;2022-07-26T13:49:46;34.70;55.40
2024;DHT22;1016;48.770;9.154;2022-07-26T13:54:39;38.00;52.30
2024;DHT22;1016;48.770;9.154;2022-07-26T13:57:04;42.00;44.40
2024;DHT22;1016;48.770;9.154;2022-07-26T14:01:58;43.80;40.80
2024;DHT22;1016;48.770;9.154;2022-07-26T14:04:23;45.20;35.40
2024;DHT22;1016;48.770;9.154;2022-07-26T14:06:49;45.20;36.10
2024;DHT22;1016;48.770;9.154;2022-07-26T14:09:16;45.30;34.20
2024;DHT22;1016;48.770;9.154;2022-07-26T14:11:42;44.80;33.10
2024;DHT22;1016;48.770;9.154;2022-07-26T14:14:08;45.00;33.40
2024;DHT22;1016;48.770;9.154;2022-07-26T14:16:34;45.50;31.90
2024;DHT22;1016;48.770;9.154;2022-07-26T14:19:00;45.50;32.50
2024;DHT22;1016;48.770;9.154;2022-07-26T14:21:30;46.10;30.80
2024;DHT22;1016;48.770;9.154;2022-07-26T14:23:56;45.30;31.10
2024;DHT22;1016;48.770;9.154;2022-07-26T14:26:22;43.90;31.10
2024;DHT22;1016;48.770;9.154;2022-07-26T14:28:48;42.60;31.20
2024;DHT22;1016;48.770;9.154;2022-07-26T14:31:14;41.10;31.90
2024;DHT22;1016;48.770;9.154;2022-07-26T14:33:40;39.40;32.40
2024;DHT22;1016;48.770;9.154;2022-07-26T14:36:06;38.40;33.50
2024;DHT22;1016;48.770;9.154;2022-07-26T14:40:57;36.60;34.70
2024;DHT22;1016;48.770;9.154;2022-07-26T14:43:25;35.40;35.90
2024;DHT22;1016;48.770;9.154;2022-07-26T14:45:50;34.40;36.80
2024;DHT22;1016;48.770;9.154;2022-07-26T14:48:17;33.70;38.10
2024;DHT22;1016;48.770;9.154;2022-07-26T14:50:43;33.00;38.30
2024;DHT22;1016;48.770;9.154;2022-07-26T14:53:09;32.50;39.30
2024;DHT22;1016;48.770;9.154;2022-07-26T14:55:35;31.80;39.90
2024;DHT22;1016;48.770;9.154;2022-07-26T14:58:00;31.40;41.00
2024;DHT22;1016;48.770;9.154;2022-07-26T15:00:26;31.10;40.80
2024;DHT22;1016;48.770;9.154;2022-07-26T15:02:51;30.80;42.10
2024;DHT22;1016;48.770;9.154;2022-07-26T15:05:17;30.60;42.10
2024;DHT22;1016;48.770;9.154;2022-07-26T15:07:43;30.30;42.50
2024;DHT22;1016;48.770;9.154;2022-07-26T15:10:09;30.10;43.00
2024;DHT22;1016;48.770;9.154;2022-07-26T15:12:35;29.90;43.40
2024;DHT22;1016;48.770;9.154;2022-07-26T15:15:00;29.90;43.70
2024;DHT22;1016;48.770;9.154;2022-07-26T15:17:26;29.60;44.30
2024;DHT22;1016;48.770;9.154;2022-07-26T15:19:51;29.50;44.70
2024;DHT22;1016;48.770;9.154;2022-07-26T15:22:17;29.10;44.60
2024;DHT22;1016;48.770;9.154;2022-07-26T15:24:42;28.90;44.60
2024;DHT22;1016;48.770;9.154;2022-07-26T15:27:08;29.10;44.60
2024;DHT22;1016;48.770;9.154;2022-07-26T15:29:34;29.00;45.40
2024;DHT22;1016;48.770;9.154;2022-07-26T15:32:03;28.90;45.70
2024;DHT22;1016;48.770;9.154;2022-07-26T15:34:29;28.80;46.10
2024;DHT22;1016;48.770;9.154;2022-07-26T15:36:54;28.90;45.60
2024;DHT22;1016;48.770;9.154;2022-07-26T15:39:20;28.90;45.40
2024;DHT22;1016;48.770;9.154;2022-07-26T15:41:47;28.90;45.70
2024;DHT22;1016;48.770;9.154;2022-07-26T15:44:15;28.90;46.00
2024;DHT22;1016;48.770;9.154;2022-07-26T15:46:41;28.90;46.00
2024;DHT22;1016;48.770;9.154;2022-07-26T15:49:10;28.90;45.50
2024;DHT22;1016;48.770;9.154;2022-07-26T15:51:37;28.80;45.30
2024;DHT22;1016;48.770;9.154;2022-07-26T15:54:03;28.70;45.10
2024;DHT22;1016;48.770;9.154;2022-07-26T15:56:29;28.60;45.30
2024;DHT22;1016;48.770;9.154;2022-07-26T15:58:55;28.50;45.90
2024;DHT22;1016;48.770;9.154;2022-07-26T16:01:20;28.50;46.20
2024;DHT22;1016;48.770;9.154;2022-07-26T16:03:46;28.90;47.00
2024;DHT22;1016;48.770;9.154;2022-07-26T16:06:11;28.60;46.80
2024;DHT22;1016;48.770;9.154;2022-07-26T16:08:37;28.50;46.60
2024;DHT22;1016;48.770;9.154;2022-07-26T16:11:02;28.50;46.90
2024;DHT22;1016;48.770;9.154;2022-07-26T16:13:28;28.50;47.20
2024;DHT22;1016;48.770;9.154;2022-07-26T16:15:54;28.60;47.50
2024;DHT22;1016;48.770;9.154;2022-07-26T16:18:19;28.50;47.50
2024;DHT22;1016;48.770;9.154;2022-07-26T16:20:45;28.40;48.00
2024;DHT22;1016;48.770;9.154;2022-07-26T16:23:11;28.40;48.20
2024;DHT22;1016;48.770;9.154;2022-07-26T16:25:36;28.50;48.50
2024;DHT22;1016;48.770;9.154;2022-07-26T16:28:02;28.30;48.70